createdAt,value
2023-01-22T00:01:10.030Z,2.62
2023-01-22T00:03:37.281Z,2.66
2023-01-22T00:06:04.826Z,2.68
2023-01-22T00:08:32.885Z,2.70
2023-01-22T00:11:00.253Z,2.70
2023-01-22T00:13:28.122Z,2.65
2023-01-22T00:16:12.264Z,2.57
2023-01-22T00:18:41.669Z,2.58
2023-01-22T00:21:09.225Z,2.63
2023-01-22T00:23:36.888Z,2.60
2023-01-22T00:26:06.720Z,2.61
2023-01-22T00:28:34.284Z,2.64
2023-01-22T00:31:02.521Z,2.63
2023-01-22T00:33:30.296Z,2.58
2023-01-22T00:35:58.188Z,2.55
2023-01-22T00:38:25.659Z,2.51
2023-01-22T00:40:53.180Z,2.50
2023-01-22T00:43:20.824Z,2.46
2023-01-22T00:45:49.121Z,2.39
2023-01-22T00:48:17.015Z,2.37
2023-01-22T00:50:46.104Z,2.38
2023-01-22T00:53:13.636Z,2.42
2023-01-22T00:55:41.314Z,2.44
2023-01-22T00:58:08.998Z,2.45
2023-01-22T01:00:36.660Z,2.49
2023-01-22T01:03:23.235Z,2.54
2023-01-22T01:05:50.888Z,2.56
2023-01-22T01:08:18.762Z,2.60
2023-01-22T01:10:46.522Z,2.65
2023-01-22T01:13:14.187Z,2.69
2023-01-22T01:15:42.280Z,2.67
2023-01-22T01:18:13.230Z,2.72
2023-01-22T01:20:41.511Z,2.80
2023-01-22T01:23:09.026Z,2.86
2023-01-22T01:25:40.511Z,2.90
2023-01-22T01:28:08.035Z,2.90
2023-01-22T01:30:35.711Z,2.91
2023-01-22T01:33:03.243Z,2.90
2023-01-22T01:35:30.813Z,2.88
2023-01-22T01:37:58.475Z,2.88
2023-01-22T01:40:26.343Z,2.86
2023-01-22T01:42:54.005Z,2.86
2023-01-22T01:45:28.630Z,2.79
2023-01-22T01:48:17.791Z,2.75
2023-01-22T01:50:47.157Z,2.73
2023-01-22T01:53:14.864Z,2.68
2023-01-22T01:55:42.324Z,2.63
2023-01-22T01:58:21.572Z,2.60
2023-01-22T02:00:52.016Z,2.58
2023-01-22T02:03:20.554Z,2.58
2023-01-22T02:05:48.316Z,2.59
2023-01-22T02:08:16.601Z,2.63
2023-01-22T02:10:44.681Z,2.65
2023-01-22T02:13:16.737Z,2.65
2023-01-22T02:15:47.463Z,2.69
2023-01-22T02:18:15.128Z,2.75
2023-01-22T02:20:55.178Z,2.79
2023-01-22T02:23:22.848Z,2.82
2023-01-22T02:25:50.702Z,2.83
2023-01-22T02:28:18.885Z,2.88
2023-01-22T02:30:46.881Z,2.94
2023-01-22T02:33:15.763Z,2.96
2023-01-22T02:35:43.827Z,3.00
2023-01-22T02:38:11.391Z,2.99
2023-01-22T02:40:49.463Z,2.95
2023-01-22T02:43:19.422Z,2.92
2023-01-22T02:45:47.012Z,2.92
2023-01-22T02:48:14.716Z,2.90
2023-01-22T02:50:42.478Z,2.87
2023-01-22T02:53:10.041Z,2.86
2023-01-22T02:55:38.974Z,2.87
2023-01-22T02:58:06.585Z,2.85
2023-01-22T03:00:34.447Z,2.82
2023-01-22T03:03:07.970Z,2.78
2023-01-22T03:05:35.409Z,2.80
2023-01-22T03:08:05.036Z,2.82
2023-01-22T03:10:33.072Z,2.87
2023-01-22T03:13:19.500Z,2.95
2023-01-22T03:16:06.260Z,3.02
2023-01-22T03:18:52.799Z,3.04
2023-01-22T03:21:20.772Z,2.95
2023-01-22T03:23:50.595Z,2.91
2023-01-22T03:26:19.166Z,2.90
2023-01-22T03:28:47.846Z,2.90
2023-01-22T03:31:16.526Z,2.90
2023-01-22T03:33:44.201Z,2.91
2023-01-22T03:36:13.719Z,2.91
2023-01-22T03:38:45.866Z,2.92
2023-01-22T03:41:16.766Z,2.91
2023-01-22T03:43:45.384Z,2.90
2023-01-22T03:46:17.502Z,2.88
2023-01-22T03:48:50.072Z,2.88
2023-01-22T03:51:18.040Z,2.88
2023-01-22T03:53:46.069Z,2.92
2023-01-22T03:56:15.681Z,2.94
2023-01-22T03:58:43.948Z,2.93
2023-01-22T04:01:13.540Z,2.90
2023-01-22T04:03:41.528Z,2.89
2023-01-22T04:06:10.309Z,2.90
2023-01-22T04:08:40.216Z,2.95
2023-01-22T04:11:08.318Z,2.97
2023-01-22T04:13:38.134Z,3.00
2023-01-22T04:16:06.899Z,3.02
2023-01-22T04:18:57.607Z,3.04
2023-01-22T04:21:49.427Z,3.08
2023-01-22T04:24:17.503Z,3.13
2023-01-22T04:26:46.599Z,3.20
2023-01-22T04:29:16.928Z,3.25
2023-01-22T04:31:45.267Z,3.28
2023-01-22T04:34:33.231Z,3.31
2023-01-22T04:37:19.635Z,3.34
2023-01-22T04:39:47.401Z,3.36
2023-01-22T04:42:15.055Z,3.37
2023-01-22T04:44:42.921Z,3.38
2023-01-22T04:47:11.207Z,3.41
2023-01-22T04:49:40.157Z,3.42
2023-01-22T04:52:11.851Z,3.41
2023-01-22T04:54:39.729Z,3.40
2023-01-22T04:57:08.504Z,3.38
2023-01-22T04:59:36.891Z,3.39
2023-01-22T05:02:04.543Z,3.42
2023-01-22T05:04:32.928Z,3.46
2023-01-22T05:07:00.493Z,3.46
2023-01-22T05:09:28.247Z,3.45
2023-01-22T05:11:59.613Z,3.46
2023-01-22T05:14:31.244Z,3.45
2023-01-22T05:16:58.907Z,3.43
2023-01-22T05:19:26.834Z,3.45
2023-01-22T08:13:47.983Z,2.73
2023-01-22T08:16:16.356Z,2.87
2023-01-22T08:18:44.289Z,2.88
2023-01-22T08:21:34.305Z,2.88
2023-01-22T08:24:02.280Z,2.86
2023-01-22T08:26:32.001Z,2.82
2023-01-22T08:30:15.324Z,2.80
2023-01-22T09:14:00.477Z,3.44
2023-01-22T09:16:28.269Z,3.51
2023-01-22T09:18:55.781Z,3.51
2023-01-22T09:21:23.339Z,3.53
2023-01-22T09:23:50.996Z,3.55
2023-01-22T09:26:20.545Z,3.58
2023-01-22T09:28:48.553Z,3.54
2023-01-22T09:31:17.314Z,3.51
2023-01-22T09:33:45.296Z,3.51
2023-01-22T09:36:15.063Z,3.57
2023-01-22T09:38:42.904Z,3.66
2023-01-22T09:41:34.425Z,3.70
2023-01-22T09:44:14.331Z,3.71
2023-01-22T09:46:45.357Z,3.70
2023-01-22T09:49:45.962Z,3.69
2023-01-22T09:52:13.557Z,3.68
2023-01-22T09:54:42.459Z,3.71
2023-01-22T09:57:14.861Z,3.80
2023-01-22T10:00:20.244Z,3.89
2023-01-22T10:03:38.881Z,3.93
2023-01-22T10:06:12.714Z,3.98
2023-01-22T10:08:58.591Z,3.99
2023-01-22T10:11:26.218Z,3.98
2023-01-22T10:13:59.131Z,3.93
2023-01-22T10:16:26.844Z,3.91
2023-01-22T10:19:05.709Z,3.89
2023-01-22T10:21:44.656Z,3.86
2023-01-22T10:24:12.767Z,3.88
2023-01-22T10:26:52.852Z,3.90
2023-01-22T10:29:23.315Z,3.94
2023-01-22T10:31:56.497Z,4.01
2023-01-22T10:34:33.439Z,4.09
2023-01-22T10:37:04.810Z,4.17
2023-01-22T10:39:48.115Z,4.22
2023-01-22T10:42:19.788Z,4.29
2023-01-22T10:44:47.417Z,4.31
2023-01-22T10:47:21.146Z,4.33
2023-01-22T10:49:52.346Z,4.35
2023-01-22T10:52:38.826Z,4.37
2023-01-22T10:55:07.664Z,4.36
2023-01-22T10:57:36.117Z,4.34
2023-01-22T11:00:13.978Z,4.32
2023-01-22T11:02:43.024Z,4.30
2023-01-22T11:05:30.695Z,4.30
2023-01-22T11:08:12.269Z,4.32
2023-01-22T11:10:50.028Z,4.33
2023-01-22T11:13:51.899Z,4.31
2023-01-22T11:16:24.798Z,4.34
2023-01-22T11:19:00.789Z,4.39
2023-01-22T11:21:32.453Z,4.42
2023-01-22T11:24:21.808Z,4.41
2023-01-22T11:26:53.777Z,4.42
2023-01-22T11:29:36.766Z,4.42
2023-01-22T11:32:15.430Z,4.40
2023-01-22T11:35:09.278Z,4.32
2023-01-22T11:38:12.578Z,4.22
2023-01-22T11:41:03.291Z,4.17
2023-01-22T11:44:05.287Z,4.11
2023-01-22T11:47:10.558Z,4.03
2023-01-22T11:49:40.837Z,4.00
2023-01-22T11:52:26.934Z,3.98
2023-01-22T11:55:13.679Z,4.00
2023-01-22T11:57:46.455Z,4.04
2023-01-22T12:00:19.511Z,4.08
2023-01-22T12:03:12.856Z,4.12
2023-01-22T12:05:49.072Z,4.12
2023-01-22T12:08:48.037Z,4.13
2023-01-22T12:11:37.912Z,4.19
2023-01-22T12:14:34.729Z,4.20
2023-01-22T12:17:36.159Z,4.19
2023-01-22T12:20:20.931Z,4.20
2023-01-22T12:23:01.812Z,4.19
2023-01-22T12:26:13.166Z,4.19
2023-01-22T12:28:48.981Z,4.17
2023-01-22T12:31:33.901Z,4.18
2023-01-22T12:34:03.294Z,4.17
2023-01-22T12:36:31.359Z,4.13
2023-01-22T12:39:06.901Z,4.09
2023-01-22T12:41:51.143Z,4.12
2023-01-22T12:44:28.715Z,4.14
2023-01-22T12:47:11.166Z,4.15
2023-01-22T12:49:51.019Z,4.13
2023-01-22T12:52:28.880Z,4.11
2023-01-22T12:55:40.816Z,4.07
2023-01-22T12:58:22.501Z,4.07
2023-01-22T17:08:23.503Z,1.35
2023-01-22T17:10:51.392Z,1.49
2023-01-22T17:13:23.116Z,1.56
2023-01-22T17:15:54.684Z,1.60
2023-01-22T17:18:23.500Z,1.62
2023-01-22T17:21:02.569Z,1.61
2023-01-22T17:23:31.187Z,1.60
2023-01-22T17:25:59.061Z,1.61
2023-01-22T17:28:27.539Z,1.61
2023-01-22T17:30:55.768Z,1.63
2023-01-22T17:33:30.012Z,1.66
2023-01-22T17:35:59.876Z,1.71
2023-01-22T17:38:29.649Z,1.76
2023-01-22T17:40:57.432Z,1.78
2023-01-22T17:43:28.890Z,1.84
2023-01-22T17:45:57.111Z,1.89
2023-01-22T17:48:24.902Z,1.87
2023-01-22T17:50:54.517Z,1.90
2023-01-22T17:53:22.696Z,1.95
2023-01-22T17:55:50.315Z,1.95
2023-01-22T17:58:20.775Z,1.93
2023-01-22T18:00:48.564Z,1.94
2023-01-22T18:03:17.197Z,1.98
2023-01-22T18:05:45.232Z,2.00
2023-01-22T18:08:13.143Z,2.04
2023-01-22T18:10:40.850Z,2.07
2023-01-22T18:13:08.568Z,2.10
2023-01-22T18:15:39.452Z,2.13
2023-01-22T18:18:07.782Z,2.14
2023-01-22T18:20:39.896Z,2.12
2023-01-22T18:23:07.977Z,2.12
2023-01-22T18:25:47.251Z,2.14
2023-01-22T18:28:15.518Z,2.15
2023-01-22T18:30:43.501Z,2.14
2023-01-22T18:33:14.442Z,2.13
2023-01-22T18:35:44.029Z,2.10
2023-01-22T18:38:12.231Z,2.10
2023-01-22T18:40:41.916Z,2.09
2023-01-22T18:43:10.917Z,2.10
2023-01-22T18:45:40.764Z,2.11
2023-01-22T18:48:11.458Z,2.08
2023-01-22T18:50:40.758Z,2.05
2023-01-22T18:53:10.055Z,2.05
2023-01-22T18:55:37.966Z,2.05
2023-01-22T18:58:14.655Z,2.06
2023-01-22T19:00:42.671Z,2.03
2023-01-22T19:03:11.604Z,2.00
2023-01-22T19:05:40.341Z,2.00
2023-01-22T19:08:08.903Z,1.99
2023-01-22T19:10:37.912Z,1.99
2023-01-22T19:13:05.716Z,2.01
2023-01-22T19:15:33.901Z,2.00
2023-01-22T19:18:04.075Z,2.04
2023-01-22T19:20:36.132Z,2.10
2023-01-22T19:23:06.103Z,2.13
2023-01-22T19:25:35.837Z,2.13
2023-01-22T19:28:04.278Z,2.13
2023-01-22T19:30:33.457Z,2.12
2023-01-22T19:33:01.580Z,2.13
2023-01-22T19:35:29.127Z,2.14
2023-01-22T19:37:57.660Z,2.14
2023-01-22T19:40:26.285Z,2.14
2023-01-22T19:42:54.204Z,2.13
2023-01-22T19:45:22.939Z,2.15
2023-01-22T19:47:50.558Z,2.16
2023-01-22T19:50:22.884Z,2.18
2023-01-22T19:52:51.338Z,2.18
2023-01-22T19:55:21.321Z,2.16
2023-01-22T19:57:49.498Z,2.14
2023-01-22T20:00:38.349Z,2.12
2023-01-22T20:03:07.918Z,2.11
2023-01-22T20:05:40.994Z,2.09
2023-01-22T20:08:09.953Z,2.07
2023-01-22T20:10:38.315Z,2.07
2023-01-22T20:13:06.770Z,2.07
2023-01-22T20:15:42.100Z,2.03
2023-01-22T20:18:10.217Z,2.01
2023-01-22T20:20:38.030Z,2.02
2023-01-22T20:23:05.951Z,2.02
2023-01-22T20:25:33.952Z,2.03
2023-01-22T20:28:02.926Z,2.05
2023-01-22T20:30:31.351Z,2.03
2023-01-22T20:33:03.556Z,2.02
2023-01-22T20:35:32.643Z,2.00
2023-01-22T20:38:00.837Z,1.97
2023-01-22T20:40:28.786Z,1.95
2023-01-22T20:42:56.784Z,1.93
2023-01-22T20:45:24.580Z,1.93
2023-01-22T20:47:54.829Z,1.94
2023-01-22T20:50:23.471Z,1.96
2023-01-22T20:52:53.954Z,1.95
2023-01-22T20:55:22.751Z,2.00
2023-01-22T20:57:50.925Z,2.03
2023-01-22T21:00:20.558Z,2.04
2023-01-22T21:02:52.106Z,2.07
2023-01-22T21:05:20.656Z,2.08
2023-01-22T21:07:49.547Z,2.09
2023-01-22T21:10:20.247Z,2.08
2023-01-22T21:12:48.698Z,2.07
2023-01-22T21:15:16.535Z,2.05
2023-01-22T21:17:44.399Z,2.05
2023-01-22T21:20:12.766Z,2.06
2023-01-22T21:22:42.788Z,2.05
2023-01-22T21:25:10.568Z,2.04
2023-01-22T21:27:38.579Z,2.01
2023-01-22T21:30:07.562Z,1.97
2023-01-22T21:32:35.274Z,1.97
2023-01-22T21:35:03.145Z,1.97
2023-01-22T21:37:30.945Z,1.95
2023-01-22T21:39:58.882Z,1.96
2023-01-22T21:42:48.044Z,1.96
2023-01-22T21:45:34.379Z,1.99
2023-01-22T21:48:02.317Z,1.99
2023-01-22T21:50:30.002Z,2.01
2023-01-22T21:52:57.764Z,2.02
2023-01-22T21:55:26.032Z,2.02
2023-01-22T21:57:53.724Z,2.03
2023-01-22T22:00:21.738Z,2.04
2023-01-22T22:02:49.660Z,2.03
2023-01-22T22:05:17.475Z,2.00
2023-01-22T22:07:47.030Z,1.99
2023-01-22T22:10:15.477Z,1.98
2023-01-22T22:12:43.732Z,1.97
2023-01-22T22:15:13.183Z,1.98
2023-01-22T22:17:41.204Z,2.00
2023-01-22T22:20:10.813Z,2.01
2023-01-22T22:22:38.637Z,2.00
2023-01-22T22:25:06.650Z,1.99
2023-01-22T22:27:34.314Z,1.98
2023-01-22T22:30:02.479Z,1.95
2023-01-22T22:32:30.020Z,1.89
2023-01-22T22:34:58.110Z,1.84
2023-01-22T22:37:25.670Z,1.85
2023-01-22T22:39:53.456Z,1.86
2023-01-22T22:42:21.199Z,1.87
2023-01-22T22:44:50.190Z,1.89
2023-01-22T22:47:18.878Z,1.87
2023-01-22T22:49:46.235Z,1.87
2023-01-22T22:52:13.685Z,1.87
2023-01-22T22:54:41.655Z,1.86
2023-01-22T22:57:09.522Z,1.86
2023-01-22T22:59:37.391Z,1.87
2023-01-22T23:02:06.487Z,1.90
2023-01-22T23:04:34.436Z,1.90
2023-01-22T23:07:02.037Z,1.89
2023-01-22T23:09:29.572Z,1.91
2023-01-22T23:11:58.795Z,1.92
2023-01-22T23:14:26.462Z,1.92
2023-01-22T23:16:54.266Z,1.92
2023-01-22T23:19:24.705Z,1.92
2023-01-22T23:21:55.964Z,1.92
2023-01-22T23:24:24.260Z,1.89
2023-01-22T23:26:52.072Z,1.85
2023-01-22T23:29:22.099Z,1.84
2023-01-22T23:31:49.685Z,1.83
2023-01-22T23:34:19.444Z,1.83
2023-01-22T23:36:47.686Z,1.81
2023-01-22T23:39:16.455Z,1.81
2023-01-22T23:41:44.441Z,1.82
2023-01-22T23:44:12.307Z,1.81
2023-01-22T23:46:39.964Z,1.81
2023-01-22T23:49:07.522Z,1.82
2023-01-22T23:51:36.945Z,1.79
2023-01-22T23:54:04.597Z,1.78
2023-01-22T23:56:32.268Z,1.76
2023-01-22T23:59:00.104Z,1.70
